Time;durP1;ratioP1;P1;durP2;ratioP2;P2;SDS_P1;SDS_P2;PMS_P1;PMS_P2;Temp;Humidity;BMP_temperature;BMP_pressure;BME280_temperature;BME280_humidity;BME280_pressure;Samples;Min_cycle;Max_cycle;Signal;HPM_P1;HPM_P2
2021/07/28 00:00:36;;;;;;;23.88;21.38;;;;;;;22.97;78.12;95236.84;4955766;28;20027;-73
2021/07/28 00:03:02;;;;;;;31.40;24.70;;;;;;;23.07;78.17;95234.16;4956026;28;20063;-74
2021/07/28 00:05:27;;;;;;;33.35;24.67;;;;;;;23.19;78.11;95235.78;4950363;28;20062;-73
2021/07/28 00:07:53;;;;;;;26.20;23.13;;;;;;;23.22;77.80;95247.78;4949712;29;20050;-74
2021/07/28 00:10:19;;;;;;;31.88;24.52;;;;;;;23.28;76.46;95255.16;4950601;28;20470;-74
2021/07/28 00:12:44;;;;;;;21.55;19.42;;;;;;;22.91;74.98;95255.41;4966772;28;20126;-74
2021/07/28 00:15:10;;;;;;;32.42;23.88;;;;;;;23.14;76.19;95263.28;4953188;28;20533;-73
2021/07/28 00:17:44;;;;;;;27.38;22.95;;;;;;;23.20;76.25;95271.84;4966286;28;20040;-73
2021/07/28 00:20:29;;;;;;;22.17;18.88;;;;;;;21.84;79.66;95294.44;4950509;28;20449;-74
2021/07/28 00:23:14;;;;;;;20.30;18.33;;;;;;;21.78;79.50;95299.41;4950806;29;20046;-74
2021/07/28 00:25:40;;;;;;;17.83;13.05;;;;;;;21.29;80.08;95284.97;4950124;29;20039;-74
2021/07/28 00:28:05;;;;;;;17.83;16.23;;;;;;;;;;4951973;28;20036;-74
2021/07/28 00:30:32;;;;;;;18.38;16.52;;;;;;;22.01;78.10;95297.34;4952436;29;20030;-74
2021/07/28 00:32:57;;;;;;;15.70;14.10;;;;;;;21.84;77.82;95284.38;4951296;28;20043;-74
2021/07/28 00:35:22;;;;;;;12.48;11.25;;;;;;;21.90;78.69;95288.31;4950118;29;20051;-73
2021/07/28 00:37:49;;;;;;;12.65;11.35;;;;;;;21.16;76.21;95277.44;4949852;28;20134;-75
2021/07/28 00:40:14;;;;;;;11.73;10.50;;;;;;;21.32;77.44;95272.63;4951389;28;20589;-75
2021/07/28 00:42:40;;;;;;;16.70;14.77;;;;;;;21.53;79.27;95267.47;4953235;28;20035;-74
2021/07/28 00:45:06;;;;;;;27.30;19.75;;;;;;;21.71;80.01;95267.66;4950731;28;20410;-74
2021/07/28 00:47:31;;;;;;;35.95;24.50;;;;;;;21.79;80.33;95260.34;4950748;28;20031;-75
2021/07/28 00:49:58;;;;;;;39.42;25.83;;;;;;;21.92;80.39;95256.22;4951524;28;20114;-76
2021/07/28 00:52:25;;;;;;;44.47;26.70;;;;;;;21.95;80.00;95246.56;4951510;28;20365;-75
2021/07/28 00:54:50;;;;;;;40.95;25.23;;;;;;;21.93;79.77;95240.75;4949720;28;20126;-75
2021/07/28 00:57:16;;;;;;;26.50;20.42;;;;;;;21.96;80.16;95234.59;4951348;28;20098;-75
2021/07/28 00:59:41;;;;;;;23.73;17.10;;;;;;;21.94;79.77;95231.47;4965519;28;20055;-76
2021/07/28 01:02:06;;;;;;;35.00;22.77;;;;;;;22.04;79.71;95228.84;4950946;28;20043;-74
2021/07/28 01:04:32;;;;;;;19.90;17.33;;;;;;;22.11;79.26;95227.38;4951215;28;20730;-74
2021/07/28 01:06:59;;;;;;;24.10;18.48;;;;;;;22.04;79.39;95209.13;4965239;28;20027;-73
2021/07/28 01:09:28;;;;;;;29.73;22.60;;;;;;;22.00;79.23;95192.84;4952696;28;20114;-74
2021/07/28 01:11:54;;;;;;;14.55;12.95;;;;;;;21.97;78.44;95192.81;4951339;28;20043;-75
2021/07/28 01:14:21;;;;;;;21.45;18.17;;;;;;;21.90;78.36;95195.47;4950723;28;20126;-74
2021/07/28 01:16:47;;;;;;;17.70;15.73;;;;;;;21.84;78.61;95184.19;4950315;28;20093;-74
2021/07/28 01:19:16;;;;;;;19.95;16.30;;;;;;;21.74;78.10;95174.84;4950494;28;20071;-74
2021/07/28 01:21:44;;;;;;;17.13;14.70;;;;;;;22.03;78.00;95213.00;4952917;28;20046;-74
2021/07/28 01:24:11;;;;;;;18.17;16.27;;;;;;;21.98;78.15;95200.56;4951363;28;20058;-74
2021/07/28 01:26:37;;;;;;;21.08;16.52;;;;;;;21.99;77.96;95206.75;4950427;28;20556;-73
2021/07/28 01:29:03;;;;;;;22.92;17.65;;;;;;;22.02;78.29;95203.31;4951021;28;20043;-74
2021/07/28 01:31:29;;;;;;;18.17;15.60;;;;;;;22.06;78.50;95213.03;4950058;28;20046;-73
2021/07/28 01:33:55;;;;;;;17.08;15.45;;;;;;;22.01;77.78;95212.59;4950933;28;20066;-73
2021/07/28 01:36:21;;;;;;;18.05;16.30;;;;;;;22.06;77.95;95223.09;4952485;29;20421;-74
2021/07/28 01:38:48;;;;;;;15.82;14.02;;;;;;;22.10;77.43;95240.13;4950894;28;20127;-75
2021/07/28 01:41:13;;;;;;;20.92;17.67;;;;;;;22.13;78.11;95223.16;4950973;28;20036;-74
2021/07/28 01:43:40;;;;;;;26.98;21.45;;;;;;;22.19;78.21;95231.72;4950554;28;20039;-73
2021/07/28 01:46:06;;;;;;;23.38;19.88;;;;;;;22.22;77.78;95237.16;4949777;28;20553;-74
2021/07/28 01:48:33;;;;;;;24.15;19.08;;;;;;;22.11;75.30;95243.63;4967204;28;20115;-74
2021/07/28 01:50:59;;;;;;;30.67;19.63;;;;;;;22.13;77.21;95239.41;4950970;28;20520;-74
2021/07/28 01:53:25;;;;;;;37.92;24.35;;;;;;;22.18;77.97;95233.66;4949318;28;20031;-74
2021/07/28 01:55:55;;;;;;;35.75;22.85;;;;;;;22.15;77.58;95215.41;4948953;29;20043;-74
2021/07/28 01:58:21;;;;;;;22.70;18.60;;;;;;;22.28;77.88;95227.53;4950655;28;20086;-74
2021/07/28 02:00:48;;;;;;;27.17;19.70;;;;;;;22.33;77.89;95225.63;4950055;28;20039;-74
2021/07/28 02:03:13;;;;;;;20.65;18.48;;;;;;;22.28;77.29;95203.13;4950918;28;20027;-74
2021/07/28 02:05:40;;;;;;;24.63;19.55;;;;;;;22.35;77.04;95207.81;4948846;28;20281;-74
2021/07/28 02:08:08;;;;;;;26.35;19.02;;;;;;;22.37;77.19;95207.44;4950535;28;20039;-74
2021/07/28 02:10:41;;;;;;;19.20;17.02;;;;;;;22.36;77.49;95209.38;4965518;28;20067;-73
2021/07/28 02:13:07;;;;;;;20.90;17.38;;;;;;;22.16;76.61;95181.78;4950472;28;20086;-75
2021/07/28 02:15:33;;;;;;;18.67;16.77;;;;;;;22.25;76.34;95198.47;4951481;28;20019;-75
2021/07/28 02:17:59;;;;;;;16.73;15.23;;;;;;;22.15;74.03;95209.22;4950176;28;20542;-74
2021/07/28 02:20:26;;;;;;;21.80;19.48;;;;;;;22.19;76.08;95199.19;4965218;28;20043;-74
2021/07/28 02:22:52;;;;;;;15.02;13.57;;;;;;;21.96;75.89;95191.28;4949493;28;20076;-75
2021/07/28 02:25:17;;;;;;;18.95;16.85;;;;;;;22.13;76.07;95203.41;4964689;28;20114;-74
2021/07/28 02:27:43;;;;;;;16.83;15.07;;;;;;;22.14;76.47;95205.75;4951993;28;20118;-75
2021/07/28 02:30:11;;;;;;;18.70;16.73;;;;;;;22.20;76.32;95200.75;4951713;28;20118;-74
2021/07/28 02:32:37;;;;;;;18.45;15.73;;;;;;;22.12;76.23;95194.53;4953872;28;20118;-73
2021/07/28 02:35:03;;;;;;;17.13;15.55;;;;;;;22.11;75.78;95203.81;4968989;28;20031;-74
2021/07/28 02:37:29;;;;;;;19.85;15.88;;;;;;;22.18;75.96;95213.91;4953546;28;20043;-73
2021/07/28 02:39:54;;;;;;;14.52;12.98;;;;;;;22.13;75.25;95216.97;4953767;28;20027;-74
2021/07/28 02:42:19;;;;;;;13.90;12.60;;;;;;;21.90;76.10;95209.00;4955745;28;20030;-74
2021/07/28 02:44:45;;;;;;;19.08;15.27;;;;;;;21.92;74.71;95206.72;4953419;28;20168;-75
2021/07/28 02:47:10;;;;;;;21.73;17.23;;;;;;;22.00;75.50;95228.03;4952942;28;20070;-75
2021/07/28 02:49:37;;;;;;;14.75;13.18;;;;;;;21.97;76.36;95236.16;4952299;28;20032;-75
2021/07/28 02:52:03;;;;;;;18.02;16.20;;;;;;;21.97;75.61;95228.03;4952156;28;20046;-74
2021/07/28 02:54:28;;;;;;;14.60;12.73;;;;;;;22.10;75.74;95232.00;4953976;29;20485;-73
2021/07/28 02:56:53;;;;;;;12.80;11.13;;;;;;;21.95;75.82;95225.69;4951577;28;20114;-74
2021/07/28 02:59:19;;;;;;;10.20;9.30;;;;;;;21.56;75.42;95219.16;4967968;28;20070;-75
2021/07/28 03:01:44;;;;;;;10.30;9.40;;;;;;;21.76;76.26;95231.34;4948747;28;20047;-74
2021/07/28 03:04:09;;;;;;;12.05;10.95;;;;;;;21.83;76.38;95225.19;4951703;28;20525;-74
2021/07/28 03:06:35;;;;;;;17.75;14.07;;;;;;;21.82;76.54;95207.41;4954560;28;20031;-74
2021/07/28 03:09:00;;;;;;;13.65;12.30;;;;;;;21.76;76.55;95210.47;4953076;28;20393;-74
2021/07/28 03:11:26;;;;;;;26.13;16.52;;;;;;;21.86;76.76;95221.75;4951713;28;20031;-74
2021/07/28 03:13:51;;;;;;;15.38;12.82;;;;;;;21.77;77.38;95217.41;4953094;28;20051;-74
2021/07/28 03:16:17;;;;;;;15.80;11.63;;;;;;;21.78;77.30;95224.38;4953038;28;20118;-74
2021/07/28 03:18:43;;;;;;;16.55;14.80;;;;;;;21.73;77.40;95208.47;4974268;28;20488;-74
2021/07/28 03:21:08;;;;;;;15.65;13.70;;;;;;;21.71;77.34;95224.34;4970662;28;20414;-73
2021/07/28 03:23:34;;;;;;;14.05;12.48;;;;;;;21.75;76.92;95214.31;4970825;28;20039;-73
2021/07/28 03:25:59;;;;;;;16.40;13.93;;;;;;;21.78;76.55;95221.69;4971444;28;20122;-73
2021/07/28 03:28:24;;;;;;;25.15;17.02;;;;;;;21.79;76.49;95217.81;4971901;28;20049;-73
2021/07/28 03:30:50;;;;;;;19.48;15.27;;;;;;;21.80;76.48;95221.28;4963688;28;20027;-75
2021/07/28 03:33:17;;;;;;;25.00;16.63;;;;;;;21.88;76.64;95232.97;4954365;28;20035;-74
2021/07/28 03:35:42;;;;;;;21.83;15.82;;;;;;;21.84;76.51;95226.75;4952335;28;20130;-74
2021/07/28 03:38:08;;;;;;;14.95;13.60;;;;;;;21.87;76.64;95234.13;4952450;28;20183;-75
2021/07/28 03:40:33;;;;;;;14.48;13.15;;;;;;;21.73;74.76;95222.03;4952253;28;20047;-74
2021/07/28 03:42:59;;;;;;;17.35;14.20;;;;;;;21.60;76.24;95204.50;4952626;28;20046;-75
2021/07/28 03:45:24;;;;;;;16.55;13.63;;;;;;;21.76;77.01;95218.56;4953937;28;20031;-75
2021/07/28 03:47:49;;;;;;;15.25;13.60;;;;;;;21.59;77.60;95189.41;4957179;28;20037;-75
2021/07/28 03:50:15;;;;;;;20.85;17.33;;;;;;;21.67;77.76;95191.03;4971682;28;20055;-75
2021/07/28 03:52:40;;;;;;;26.45;18.92;;;;;;;21.81;77.75;95203.94;4971606;28;20548;-75
2021/07/28 03:55:06;;;;;;;19.50;16.02;;;;;;;21.83;77.60;95208.97;4971584;28;21008;-74
2021/07/28 03:57:32;;;;;;;20.50;17.00;;;;;;;21.77;77.63;95190.34;4973072;28;20030;-75
2021/07/28 03:59:58;;;;;;;17.02;14.90;;;;;;;21.76;77.42;95182.59;4969082;28;20117;-75
2021/07/28 04:02:23;;;;;;;18.92;16.10;;;;;;;21.90;77.15;95200.88;4954065;28;20039;-74
2021/07/28 04:04:48;;;;;;;32.88;22.35;;;;;;;21.87;77.58;95188.88;4970390;28;20043;-75
2021/07/28 04:07:14;;;;;;;21.35;17.55;;;;;;;21.97;77.59;95196.31;4970802;28;20481;-74
2021/07/28 04:09:39;;;;;;;21.50;17.23;;;;;;;21.93;77.66;95189.31;4972802;28;20577;-75
2021/07/28 04:12:05;;;;;;;38.25;24.65;;;;;;;21.97;77.67;95185.47;4971039;28;20508;-75
2021/07/28 04:14:30;;;;;;;28.20;19.15;;;;;;;22.01;77.06;95186.28;4971221;28;20037;-75
2021/07/28 04:16:56;;;;;;;19.10;15.63;;;;;;;22.01;75.69;95190.94;4954194;28;20039;-74
2021/07/28 04:19:21;;;;;;;29.83;19.90;;;;;;;22.02;76.69;95189.78;4951747;28;20123;-75
2021/07/28 04:21:46;;;;;;;29.13;20.13;;;;;;;22.03;76.52;95189.38;4951819;28;20106;-76
2021/07/28 04:24:12;;;;;;;22.08;18.15;;;;;;;22.10;75.95;95199.47;4953717;28;20027;-75
2021/07/28 04:26:37;;;;;;;19.25;16.05;;;;;;;21.86;75.95;95175.72;4951220;28;20054;-74
2021/07/28 04:29:02;;;;;;;20.27;17.92;;;;;;;21.77;75.95;95198.47;4966482;28;20053;-74
2021/07/28 04:31:28;;;;;;;22.25;17.15;;;;;;;21.69;76.62;95188.72;4950998;28;20047;-74
2021/07/28 04:33:53;;;;;;;22.48;18.05;;;;;;;21.62;76.70;95180.53;4966603;28;20038;-74
2021/07/28 04:36:18;;;;;;;24.63;18.95;;;;;;;21.33;75.94;95203.06;4953026;28;20031;-75
2021/07/28 04:38:44;;;;;;;19.55;16.20;;;;;;;20.58;79.26;95199.47;4951518;28;20051;-75
2021/07/28 04:41:09;;;;;;;22.45;16.90;;;;;;;20.62;80.48;95206.47;4951802;28;20122;-74
2021/07/28 04:43:34;;;;;;;16.33;13.48;;;;;;;19.99;82.13;95215.97;4951892;28;20112;-75
2021/07/28 04:46:03;;;;;;;26.70;16.92;;;;;;;20.45;80.05;95199.66;4950616;28;20045;-75
2021/07/28 04:48:29;;;;;;;12.73;11.48;;;;;;;20.47;79.81;95204.72;4953369;28;20086;-75
2021/07/28 04:50:55;;;;;;;12.50;10.65;;;;;;;20.48;79.08;95217.09;4950612;28;20038;-75
2021/07/28 04:53:21;;;;;;;13.35;10.13;;;;;;;20.41;79.00;95220.44;4950975;28;20035;-75
2021/07/28 04:55:52;;;;;;;11.45;9.55;;;;;;;20.38;77.69;95215.78;4951040;28;20090;-75
2021/07/28 04:58:18;;;;;;;11.82;9.70;;;;;;;20.72;77.30;95213.94;4951267;28;20401;-74
2021/07/28 05:00:43;;;;;;;10.05;8.90;;;;;;;20.67;77.62;95211.53;4965644;28;20086;-75
2021/07/28 05:03:09;;;;;;;10.93;9.82;;;;;;;20.87;77.20;95214.88;4952858;28;20035;-74
2021/07/28 05:05:34;;;;;;;10.35;8.20;;;;;;;21.09;76.76;95204.31;4949703;28;20039;-74
2021/07/28 05:07:59;;;;;;;8.55;7.82;;;;;;;21.38;75.70;95210.84;4950932;28;20036;-75
2021/07/28 05:10:25;;;;;;;20.50;13.20;;;;;;;21.70;75.29;95206.53;4951210;28;20031;-75
2021/07/28 05:12:50;;;;;;;14.10;12.60;;;;;;;21.95;74.46;95208.66;4950940;28;20466;-75
2021/07/28 05:15:16;;;;;;;9.57;8.70;;;;;;;22.20;73.51;95206.94;4952607;29;20031;-76
2021/07/28 05:17:42;;;;;;;8.77;7.97;;;;;;;22.45;72.96;95195.50;4943743;28;20122;-75
2021/07/28 05:20:08;;;;;;;8.50;6.68;;;;;;;22.66;72.31;95195.59;4951155;28;20043;-75
2021/07/28 05:22:34;;;;;;;7.68;7.07;;;;;;;22.90;71.78;95198.84;4951213;28;20035;-71
2021/07/28 05:24:59;;;;;;;5.97;5.47;;;;;;;23.04;71.14;95196.19;4950610;28;20023;-67
2021/07/28 05:27:24;;;;;;;6.43;5.85;;;;;;;23.13;69.48;95191.16;4952016;28;20043;-67
2021/07/28 05:29:50;;;;;;;6.53;5.93;;;;;;;23.25;70.08;95188.09;4950699;28;20038;-68
2021/07/28 05:32:16;;;;;;;9.57;7.20;;;;;;;23.42;69.28;95191.25;4950309;28;20043;-68
2021/07/28 05:34:41;;;;;;;7.05;6.45;;;;;;;23.55;69.19;95189.72;4951504;28;20059;-69
2021/07/28 05:37:06;;;;;;;8.50;6.30;;;;;;;23.66;68.98;95197.91;4950654;28;20126;-71
2021/07/28 05:39:32;;;;;;;6.10;5.55;;;;;;;23.72;68.50;95180.84;4952727;28;20458;-68
2021/07/28 05:41:57;;;;;;;7.20;5.85;;;;;;;23.91;68.16;95189.78;4949114;28;20462;-70
2021/07/28 05:44:23;;;;;;;7.13;6.53;;;;;;;23.98;68.60;95181.63;4946572;28;20039;-68
2021/07/28 05:46:48;;;;;;;7.13;5.68;;;;;;;24.05;68.07;95182.38;4951923;28;20047;-68
2021/07/28 05:49:13;;;;;;;6.40;5.90;;;;;;;23.94;67.96;95167.25;4968949;28;20047;-66
2021/07/28 05:51:39;;;;;;;5.80;5.40;;;;;;;24.12;67.58;95198.69;4970915;28;20027;-69
2021/07/28 05:54:04;;;;;;;10.40;6.20;;;;;;;24.07;67.61;95187.44;4967793;28;20035;-65
2021/07/28 05:56:30;;;;;;;6.40;5.80;;;;;;;24.18;67.44;95187.44;4968514;28;20061;-66
2021/07/28 05:58:55;;;;;;;6.10;5.03;;;;;;;24.33;66.82;95197.88;4965097;28;20135;-65
2021/07/28 06:01:21;;;;;;;6.90;5.45;;;;;;;24.41;66.03;95176.13;4961192;28;20069;-65
2021/07/28 06:03:47;;;;;;;9.65;5.53;;;;;;;24.12;65.01;95125.31;4948717;28;20031;-68
2021/07/28 06:06:12;;;;;;;7.70;6.05;;;;;;;24.58;64.91;95178.84;4954445;28;20026;-67
2021/07/28 06:08:37;;;;;;;8.45;6.07;;;;;;;24.57;65.07;95181.94;4953716;28;20032;-65
2021/07/28 06:11:03;;;;;;;7.28;5.20;;;;;;;24.27;61.87;95169.56;4953499;28;20793;-66
2021/07/28 06:13:28;;;;;;;6.25;5.65;;;;;;;22.96;67.20;95173.69;4953560;28;20452;-64
2021/07/28 06:15:54;;;;;;;6.40;5.55;;;;;;;23.09;68.31;95201.25;4968097;28;20111;-67
2021/07/28 06:18:19;;;;;;;8.43;5.72;;;;;;;23.07;66.94;95189.97;4955459;28;20458;-67
2021/07/28 06:20:44;;;;;;;6.15;5.22;;;;;;;23.59;66.52;95174.19;4953460;28;20560;-64
2021/07/28 06:23:10;;;;;;;5.78;5.03;;;;;;;23.98;65.79;95176.19;4949781;28;20476;-65
2021/07/28 06:25:35;;;;;;;7.95;5.40;;;;;;;24.00;65.00;95119.50;4965554;28;20485;-65
2021/07/28 06:28:00;;;;;;;6.00;5.20;;;;;;;24.60;64.54;95132.19;4952608;28;20055;-66
2021/07/28 06:30:26;;;;;;;6.57;4.90;;;;;;;25.06;63.83;95148.34;4955335;28;20027;-67
2021/07/28 06:32:52;;;;;;;8.80;5.43;;;;;;;25.32;61.52;95176.97;4964983;28;20552;-67
2021/07/28 06:35:17;;;;;;;5.53;4.93;;;;;;;24.37;62.58;95193.25;4972646;28;20516;-69
2021/07/28 06:37:43;;;;;;;4.97;4.57;;;;;;;23.02;66.45;95184.94;4971748;28;20052;-65
2021/07/28 06:40:09;;;;;;;6.35;5.15;;;;;;;23.75;66.36;95185.50;4971750;28;20042;-65
2021/07/28 06:42:34;;;;;;;5.40;4.90;;;;;;;24.00;63.27;95177.34;4974522;28;20480;-66
2021/07/28 06:44:59;;;;;;;5.65;5.15;;;;;;;24.48;63.44;95193.22;4970742;28;20039;-67
2021/07/28 06:47:25;;;;;;;6.75;4.65;;;;;;;25.07;62.39;95190.72;4955219;28;20501;-67
2021/07/28 06:49:50;;;;;;;5.03;4.55;;;;;;;24.84;58.88;95136.00;4952279;28;20529;-67
2021/07/28 06:52:16;;;;;;;5.55;5.05;;;;;;;25.40;59.52;95178.50;4952485;28;20044;-68
2021/07/28 06:54:41;;;;;;;5.70;4.40;;;;;;;25.71;58.52;95188.81;4969809;28;20027;-68
2021/07/28 06:57:06;;;;;;;5.00;4.60;;;;;;;25.12;57.30;95189.53;4952420;28;20528;-68
2021/07/28 06:59:32;;;;;;;6.25;4.20;;;;;;;24.89;59.29;95190.00;4952899;28;20103;-66
2021/07/28 07:01:57;;;;;;;5.07;4.68;;;;;;;24.38;60.91;95197.53;4952194;28;20043;-67
2021/07/28 07:04:22;;;;;;;7.38;5.00;;;;;;;24.01;62.22;95169.97;4952576;28;20036;-67
2021/07/28 07:06:48;;;;;;;6.60;5.38;;;;;;;24.87;60.85;95174.06;4967015;28;20389;-68
2021/07/28 07:09:13;;;;;;;7.28;4.97;;;;;;;25.53;58.74;95178.78;4954338;28;20067;-67
2021/07/28 07:11:38;;;;;;;6.35;4.90;;;;;;;25.56;58.01;95183.44;4952543;28;20050;-67
2021/07/28 07:14:04;;;;;;;5.25;4.75;;;;;;;25.83;57.54;95180.16;4952656;28;20442;-67
2021/07/28 07:16:29;;;;;;;5.70;5.30;;;;;;;26.11;55.51;95188.13;4965905;28;20501;-67
2021/07/28 07:18:55;;;;;;;5.05;4.50;;;;;;;26.19;55.82;95177.91;4950977;28;20030;-67
2021/07/28 07:21:20;;;;;;;7.15;4.93;;;;;;;26.45;54.69;95190.16;4954309;28;20023;-66
2021/07/28 07:23:45;;;;;;;7.22;4.97;;;;;;;26.09;56.86;95174.09;4952294;28;20039;-67
2021/07/28 07:26:11;;;;;;;6.32;5.43;;;;;;;25.68;56.99;95187.63;4966572;28;20150;-67
2021/07/28 07:28:37;;;;;;;8.73;5.40;;;;;;;25.58;57.00;95189.25;4952414;28;20051;-67
2021/07/28 07:31:07;;;;;;;5.78;5.22;;;;;;;26.05;55.98;95189.75;4951844;28;20035;-67
2021/07/28 07:33:41;;;;;;;5.93;5.53;;;;;;;25.02;58.24;95188.38;4953813;28;20433;-67
2021/07/28 07:36:10;;;;;;;6.45;5.95;;;;;;;23.38;63.56;95199.38;4951689;28;20050;-67
2021/07/28 07:38:37;;;;;;;6.90;6.28;;;;;;;24.12;61.14;95157.16;4951857;28;20077;-67
2021/07/28 07:41:03;;;;;;;6.85;6.25;;;;;;;23.94;59.89;95156.38;4951986;28;20043;-67
2021/07/28 07:43:29;;;;;;;7.60;6.53;;;;;;;24.25;61.27;95165.66;4951930;28;20043;-68
2021/07/28 07:45:55;;;;;;;7.72;6.35;;;;;;;24.62;60.71;95197.88;4951115;28;20039;-68
2021/07/28 07:48:22;;;;;;;7.28;6.28;;;;;;;24.83;60.50;95162.44;4953442;29;20030;-68
2021/07/28 07:50:48;;;;;;;6.72;6.13;;;;;;;24.81;60.12;95188.47;4951707;28;20720;-67
2021/07/28 07:53:13;;;;;;;7.38;6.43;;;;;;;23.95;62.82;95201.41;4951883;28;20051;-68
2021/07/28 07:55:39;;;;;;;6.80;6.28;;;;;;;24.65;61.03;95191.63;4951435;28;20048;-67
2021/07/28 07:58:04;;;;;;;6.32;5.82;;;;;;;24.81;60.47;95194.69;4951589;28;20082;-67
2021/07/28 08:00:30;;;;;;;7.28;6.68;;;;;;;24.18;61.50;95199.06;4968406;28;20035;-67
2021/07/28 08:02:55;;;;;;;8.52;7.72;;;;;;;23.17;64.12;95208.22;4950697;28;20043;-67
2021/07/28 08:05:21;;;;;;;7.80;7.13;;;;;;;23.35;64.85;95203.63;4951290;28;20043;-68
2021/07/28 08:07:47;;;;;;;8.70;7.72;;;;;;;23.17;66.44;95189.25;4950955;28;20067;-68
2021/07/28 08:10:12;;;;;;;11.43;8.48;;;;;;;23.14;65.69;95197.38;4951484;28;20036;-67
2021/07/28 08:12:38;;;;;;;8.50;7.80;;;;;;;23.17;65.77;95204.75;4953487;29;20058;-68
2021/07/28 08:15:04;;;;;;;10.13;9.07;;;;;;;22.80;66.50;95203.81;4966236;28;20043;-67
2021/07/28 08:17:29;;;;;;;9.00;8.15;;;;;;;22.85;67.17;95199.94;4950496;28;20051;-67
2021/07/28 08:19:54;;;;;;;10.93;8.82;;;;;;;22.73;68.69;95205.72;4951422;28;20548;-67
2021/07/28 08:22:20;;;;;;;9.32;8.52;;;;;;;22.08;69.81;95209.16;4949773;28;20054;-67
2021/07/28 08:24:45;;;;;;;10.32;9.52;;;;;;;22.33;69.59;95210.13;4951720;28;20469;-68
2021/07/28 08:27:10;;;;;;;10.77;9.88;;;;;;;22.11;69.44;95216.53;4951923;28;20394;-68
2021/07/28 08:29:36;;;;;;;11.15;10.05;;;;;;;21.54;71.39;95192.44;4951195;28;20517;-67
2021/07/28 08:32:01;;;;;;;10.82;9.80;;;;;;;22.23;69.97;95206.19;4965265;28;20054;-68
2021/07/28 08:34:27;;;;;;;11.70;10.65;;;;;;;21.96;70.63;95202.09;4950804;28;20512;-67
2021/07/28 08:36:52;;;;;;;13.55;10.20;;;;;;;21.68;71.01;95189.88;4950428;28;20031;-68
2021/07/28 08:39:18;;;;;;;10.35;9.43;;;;;;;21.90;71.24;95198.16;4953039;28;20023;-67
2021/07/28 08:41:48;;;;;;;11.25;10.15;;;;;;;21.71;71.73;95197.25;4951107;28;20075;-68
2021/07/28 08:44:20;;;;;;;11.82;10.77;;;;;;;21.45;72.11;95187.38;4950988;28;20051;-67
2021/07/28 08:46:45;;;;;;;12.52;10.73;;;;;;;21.57;72.60;95218.00;4949573;28;20058;-69
2021/07/28 08:49:14;;;;;;;11.98;10.98;;;;;;;21.57;72.30;95185.53;4950784;28;20043;-67
2021/07/28 08:51:43;;;;;;;12.65;11.60;;;;;;;21.77;72.08;95216.66;4952897;29;20102;-67
2021/07/28 08:54:08;;;;;;;15.57;12.98;;;;;;;21.90;72.19;95253.09;4951228;28;20052;-67
2021/07/28 08:56:39;;;;;;;17.63;14.32;;;;;;;21.37;74.95;95236.34;4950077;28;20035;-67
2021/07/28 08:59:04;;;;;;;34.53;21.65;;;;;;;20.36;80.24;95255.88;4950825;28;20039;-66
2021/07/28 09:01:29;;;;;;;45.35;28.40;;;;;;;20.08;83.01;95267.03;4948903;28;20058;-64
2021/07/28 09:03:55;;;;;;;55.13;35.47;;;;;;;19.94;85.20;95261.38;4950740;28;20066;-68
2021/07/28 09:06:27;;;;;;;68.97;34.17;;;;;;;19.58;86.39;95266.13;4951996;28;20027;-70
2021/07/28 09:08:58;;;;;;;68.25;36.17;;;;;;;19.51;89.15;95270.63;4950521;28;20048;-68
2021/07/28 09:11:23;;;;;;;77.68;39.35;;;;;;;19.62;87.59;95264.31;4950735;28;20047;-67
2021/07/28 09:13:48;;;;;;;70.80;37.75;;;;;;;19.59;87.85;95269.63;4951257;28;20067;-72
2021/07/28 09:16:18;;;;;;;73.97;35.75;;;;;;;19.23;89.16;95287.81;4950765;28;20075;-71
2021/07/28 09:18:47;;;;;;;81.30;37.03;;;;;;;18.93;91.49;95288.38;4952110;28;20035;-70
2021/07/28 09:21:27;;;;;;;79.55;38.05;;;;;;;19.00;91.77;95274.28;4951840;28;20043;-72
2021/07/28 09:23:53;;;;;;;99.03;42.30;;;;;;;19.29;91.30;95294.47;4949938;29;20374;-73
2021/07/28 09:26:46;;;;;;;89.93;41.85;;;;;;;19.47;89.36;95309.09;4948759;28;20090;-70
2021/07/28 09:29:17;;;;;;;71.28;31.05;;;;;;;18.69;90.43;95265.16;4950122;28;20138;-67
2021/07/28 09:31:51;;;;;;;93.53;40.35;;;;;;;19.09;90.76;95293.72;4949878;28;20044;-69
2021/07/28 09:34:21;;;;;;;177.02;54.22;;;;;;;19.44;90.91;95292.84;4949796;28;20502;-67
2021/07/28 09:36:48;;;;;;;125.70;47.80;;;;;;;19.01;90.58;95259.66;4947799;28;20122;-68
2021/07/28 09:39:31;;;;;;;144.07;56.28;;;;;;;18.97;91.91;95285.75;4953763;28;20491;-70
2021/07/28 09:41:58;;;;;;;144.05;52.08;;;;;;;18.83;93.44;95280.84;4954135;28;20051;-70
2021/07/28 09:44:26;;;;;;;124.95;50.15;;;;;;;19.08;91.58;95304.84;4954592;28;20053;-70
2021/07/28 09:47:16;;;;;;;100.53;45.72;;;;;;;19.18;91.88;95296.97;4951368;28;20051;-70
2021/07/28 09:50:03;;;;;;;126.75;53.33;;;;;;;19.18;91.50;95294.28;4953542;28;20130;-70
2021/07/28 09:52:33;;;;;;;107.35;46.50;;;;;;;19.21;91.45;95306.28;4963089;28;20030;-69
2021/07/28 09:54:59;;;;;;;98.32;46.33;;;;;;;19.30;90.77;95314.16;4973863;28;20058;-69
2021/07/28 09:57:27;;;;;;;92.38;43.97;;;;;;;19.54;89.87;95319.25;4974886;28;20031;-66
2021/07/28 10:00:05;;;;;;;81.95;42.95;;;;;;;19.82;87.67;95339.84;4973366;28;20050;-66
2021/07/28 10:02:34;;;;;;;50.00;30.48;;;;;;;19.53;85.74;95347.38;4964769;28;20039;-65
2021/07/28 10:05:02;;;;;;;47.03;28.90;;;;;;;19.88;83.65;95360.78;4960363;28;20050;-65
2021/07/28 10:07:30;;;;;;;63.40;32.92;;;;;;;20.16;83.39;95363.19;4971194;28;20540;-68
2021/07/28 10:10:10;;;;;;;48.90;29.98;;;;;;;19.94;83.92;95350.47;4972977;28;20027;-68
2021/07/28 10:12:40;;;;;;;49.72;29.80;;;;;;;19.97;83.52;95360.56;4975076;28;20027;-68
2021/07/28 10:15:10;;;;;;;71.63;35.97;;;;;;;20.20;84.43;95360.56;4972998;28;20039;-68
2021/07/28 10:17:40;;;;;;;48.95;31.75;;;;;;;20.63;81.35;95351.28;4963712;28;20448;-68
2021/07/28 10:20:11;;;;;;;60.60;33.45;;;;;;;20.67;80.63;95357.50;4953463;28;20409;-68
2021/07/28 10:22:37;;;;;;;68.07;35.45;;;;;;;21.16;81.09;95348.56;4953111;28;20051;-68
2021/07/28 10:25:13;;;;;;;31.27;22.90;;;;;;;20.76;81.52;95355.31;4953203;28;20024;-66
2021/07/28 10:27:42;;;;;;;15.10;13.18;;;;;;;19.63;80.96;95357.63;4953556;29;20050;-66
2021/07/28 10:30:10;;;;;;;15.00;12.43;;;;;;;19.26;82.70;95364.56;4968173;28;20039;-66
2021/07/28 10:32:35;;;;;;;32.25;20.15;;;;;;;20.10;82.44;95361.94;4952968;28;20036;-66
2021/07/28 10:35:22;;;;;;;34.20;21.45;;;;;;;21.34;81.34;95353.44;4953066;28;20039;-67
2021/07/28 10:37:49;;;;;;;13.75;12.50;;;;;;;20.80;77.71;95343.81;4952454;28;20043;-66
2021/07/28 10:40:23;;;;;;;21.45;16.35;;;;;;;21.31;78.69;95348.78;4953164;28;20035;-66
2021/07/28 10:42:49;;;;;;;13.05;11.80;;;;;;;21.27;74.50;95357.59;4951789;28;20500;-66
2021/07/28 10:45:17;;;;;;;11.65;10.43;;;;;;;21.40;76.53;95352.75;4954587;28;20036;-66
2021/07/28 10:47:53;;;;;;;10.75;9.85;;;;;;;22.06;76.43;95351.16;4950674;28;20507;-66
2021/07/28 10:50:21;;;;;;;92.78;46.38;;;;;;;22.46;76.98;95359.66;4950962;28;20166;-72
2021/07/28 10:52:48;;;;;;;46.75;23.50;;;;;;;22.87;77.50;95352.22;4951918;28;20042;-75
2021/07/28 10:55:21;;;;;;;55.60;29.58;;;;;;;23.20;75.97;95348.59;4953270;28;20069;-73
2021/07/28 10:57:52;;;;;;;50.60;23.52;;;;;;;22.34;71.06;95349.13;4951146;28;20034;-71
2021/07/28 11:00:35;;;;;;;10.77;9.77;;;;;;;22.83;75.72;95346.03;4954696;28;20031;-69
2021/07/28 11:03:06;;;;;;;11.32;10.32;;;;;;;23.39;76.13;95336.66;4952123;28;20117;-69
2021/07/28 11:05:41;;;;;;;11.85;10.73;;;;;;;24.24;76.07;95336.13;4952083;28;20057;-72
2021/07/28 11:08:10;;;;;;;11.30;10.38;;;;;;;25.13;74.84;95319.81;4966841;28;20421;-69
2021/07/28 11:10:39;;;;;;;9.55;8.75;;;;;;;25.76;72.86;95325.41;4951542;28;20039;-70
2021/07/28 11:13:07;;;;;;;8.48;7.78;;;;;;;25.22;69.21;95310.44;4952569;28;20043;-69
2021/07/28 11:15:33;;;;;;;8.38;7.57;;;;;;;25.97;71.11;95296.47;4954650;29;20024;-69
2021/07/28 11:17:59;;;;;;;8.40;7.75;;;;;;;26.64;68.03;95333.41;4951788;28;20047;-69
2021/07/28 11:20:28;;;;;;;7.38;6.80;;;;;;;26.94;67.83;95330.78;4970180;28;20094;-72